Terminal Aerodrome Forecast
Issued by NWS

Home | Current Version | Previous Version | Text Only | Print | Product List | Glossary On
Versions: 1 2 3 4 5 6 7 8 9 10 11 12 13 14 15 16 17
000
FTUS45 KFGZ 032320
TAFGCN
TAF
KGCN 032320Z 0400/0424 20008KT P6SM VCSH SCT060 BKN110
     FM040300 VRB06KT P6SM SCT080 BKN110
     FM041800 25009KT P6SM SCT060 BKN110 PROB30 0420/0424 5SM TSRA
      BKN060CB=

USA.gov is the U.S. government's official web portal to all federal, state and local government web resources and services.